Airfield :
LOGIN :

Register | Disclaimer

   EN    FR    IT 

 










Legend :    VFR   Marginal VFR   IFR   Intensive IFR   Very Intensive IFR
Visi :
Ceiling :
>= 8 km
>= 3000ft
5 to 8 km
1000 to 3000 ft
1500m to 5 km
500 to 1000 ft
800 to 1500m
200 to 500 ft
< 800m
< 200 ft
Symbols :   Thunderstorms  Fog  Heavy snow  Heavy precipitations  Wind > 20 kt
SIGMETs :     Misc.  Thunderstorms  Icing  Turbulence  Mountain Waves  Volcanic Ashes






- Airport Elevation : 24 ft
- IATA code : IBZ


LEIB - Ibiza

CURRENT METAR :
  • 151300Z 31010KT 270V340 CAVOK 22/09 Q1018 NOSIG

EXPIRED METARs :
  • 151230Z 29009KT 260V010 9999 FEW035 21/09 Q1019 NOSIG
  • 151200Z 32010KT 280V360 9999 FEW044 21/08 Q1019 NOSIG
  • 151130Z 30010KT 270V350 9999 FEW044 21/09 Q1019 NOSIG
  • 151100Z 30010KT 240V330 9999 FEW042 21/10 Q1019 NOSIG
  • 151030Z 32008KT 280V350 9999 FEW043 21/10 Q1018 NOSIG

TAF TAF LEIB
Valid from the 15 at 09:00 until the 16 at 09:00 UTC


150800Z 1509/1609 29010KT 9999 FEW015 TX24/1512Z TN16/1606Z
BECMG 1514/1516 VRB03KT



MET'MAP, your aeronautical weather chart ! - Copyright ORBIFLY December 2007 - Disclaimer

ORBIFLY MET'MAP TEAM :

Programming & Development : Alexandra Zaïnal
Concept & Development : Baudouin d'Aumeries
Co-Development & Prog : Marc-Olivier Méhu
Technical & hardware support : Manuel Goepfert

Contact : metmap@orbifly.com




SOURCES & CREDITS :

   NOAA